sensor_id;sensor_type;location;lat;lon;timestamp;P1;durP1;ratioP1;P2;durP2;ratioP2
27889;SDS011;15238;49.082;9.102;2023-08-06T00:00:54;2.83;;;2.17;;
27889;SDS011;15238;49.082;9.102;2023-08-06T00:02:54;3.03;;;2.03;;
27889;SDS011;15238;49.082;9.102;2023-08-06T00:04:55;4.95;;;2.30;;
27889;SDS011;15238;49.082;9.102;2023-08-06T00:06:55;2.78;;;2.30;;
27889;SDS011;15238;49.082;9.102;2023-08-06T00:08:56;2.60;;;2.10;;
27889;SDS011;15238;49.082;9.102;2023-08-06T00:10:56;1.80;;;1.70;;
27889;SDS011;15238;49.082;9.102;2023-08-06T00:12:57;3.30;;;2.08;;
27889;SDS011;15238;49.082;9.102;2023-08-06T00:14:57;2.63;;;1.92;;
27889;SDS011;15238;49.082;9.102;2023-08-06T00:16:57;3.03;;;1.92;;
27889;SDS011;15238;49.082;9.102;2023-08-06T00:18:58;2.75;;;2.22;;
27889;SDS011;15238;49.082;9.102;2023-08-06T00:20:58;3.00;;;2.10;;
27889;SDS011;15238;49.082;9.102;2023-08-06T00:22:59;2.70;;;1.80;;
27889;SDS011;15238;49.082;9.102;2023-08-06T00:25:00;2.35;;;2.00;;
27889;SDS011;15238;49.082;9.102;2023-08-06T00:27:01;2.78;;;2.20;;
27889;SDS011;15238;49.082;9.102;2023-08-06T00:29:02;3.10;;;2.00;;
27889;SDS011;15238;49.082;9.102;2023-08-06T00:31:02;3.88;;;2.40;;
27889;SDS011;15238;49.082;9.102;2023-08-06T00:33:03;3.47;;;2.45;;
27889;SDS011;15238;49.082;9.102;2023-08-06T00:35:03;3.72;;;2.72;;
27889;SDS011;15238;49.082;9.102;2023-08-06T00:37:04;3.28;;;2.53;;
27889;SDS011;15238;49.082;9.102;2023-08-06T00:39:05;5.20;;;2.83;;
27889;SDS011;15238;49.082;9.102;2023-08-06T00:41:06;3.97;;;2.90;;
27889;SDS011;15238;49.082;9.102;2023-08-06T00:43:07;3.13;;;2.78;;
27889;SDS011;15238;49.082;9.102;2023-08-06T00:45:08;3.53;;;2.72;;
27889;SDS011;15238;49.082;9.102;2023-08-06T00:47:08;3.00;;;2.67;;
27889;SDS011;15238;49.082;9.102;2023-08-06T00:49:09;3.15;;;2.85;;
27889;SDS011;15238;49.082;9.102;2023-08-06T00:51:10;4.03;;;3.15;;
27889;SDS011;15238;49.082;9.102;2023-08-06T00:53:11;3.33;;;2.88;;
27889;SDS011;15238;49.082;9.102;2023-08-06T00:55:12;3.15;;;2.72;;
27889;SDS011;15238;49.082;9.102;2023-08-06T00:57:12;6.50;;;3.13;;
27889;SDS011;15238;49.082;9.102;2023-08-06T00:59:13;3.58;;;3.03;;
27889;SDS011;15238;49.082;9.102;2023-08-06T01:01:14;3.35;;;2.65;;
27889;SDS011;15238;49.082;9.102;2023-08-06T01:03:15;3.17;;;2.55;;
27889;SDS011;15238;49.082;9.102;2023-08-06T01:05:15;3.65;;;2.58;;
27889;SDS011;15238;49.082;9.102;2023-08-06T01:09:29;3.30;;;2.77;;
27889;SDS011;15238;49.082;9.102;2023-08-06T01:11:54;3.72;;;2.88;;
27889;SDS011;15238;49.082;9.102;2023-08-06T01:16:33;3.78;;;2.75;;
27889;SDS011;15238;49.082;9.102;2023-08-06T01:18:35;4.32;;;3.47;;
27889;SDS011;15238;49.082;9.102;2023-08-06T01:20:37;3.08;;;2.55;;
27889;SDS011;15238;49.082;9.102;2023-08-06T01:22:37;5.00;;;2.65;;
27889;SDS011;15238;49.082;9.102;2023-08-06T01:24:38;3.72;;;2.78;;
27889;SDS011;15238;49.082;9.102;2023-08-06T01:26:43;2.83;;;2.42;;
27889;SDS011;15238;49.082;9.102;2023-08-06T01:29:06;2.97;;;2.50;;
27889;SDS011;15238;49.082;9.102;2023-08-06T01:31:27;4.55;;;2.55;;
27889;SDS011;15238;49.082;9.102;2023-08-06T01:33:35;4.03;;;2.70;;
27889;SDS011;15238;49.082;9.102;2023-08-06T01:35:38;3.30;;;2.92;;
27889;SDS011;15238;49.082;9.102;2023-08-06T01:37:39;3.00;;;2.70;;
27889;SDS011;15238;49.082;9.102;2023-08-06T01:39:44;3.25;;;2.40;;
27889;SDS011;15238;49.082;9.102;2023-08-06T01:41:44;3.67;;;2.72;;
27889;SDS011;15238;49.082;9.102;2023-08-06T01:43:45;3.10;;;2.67;;
27889;SDS011;15238;49.082;9.102;2023-08-06T01:45:45;7.20;;;2.55;;
27889;SDS011;15238;49.082;9.102;2023-08-06T01:47:46;8.15;;;3.03;;
27889;SDS011;15238;49.082;9.102;2023-08-06T01:49:46;3.78;;;2.63;;
27889;SDS011;15238;49.082;9.102;2023-08-06T01:51:47;3.33;;;3.00;;
27889;SDS011;15238;49.082;9.102;2023-08-06T01:53:48;4.28;;;3.00;;
27889;SDS011;15238;49.082;9.102;2023-08-06T01:55:48;3.05;;;2.75;;
27889;SDS011;15238;49.082;9.102;2023-08-06T01:57:49;3.88;;;2.85;;
27889;SDS011;15238;49.082;9.102;2023-08-06T01:59:49;4.72;;;2.70;;
27889;SDS011;15238;49.082;9.102;2023-08-06T02:01:50;4.18;;;2.80;;
27889;SDS011;15238;49.082;9.102;2023-08-06T02:03:50;3.40;;;2.90;;
27889;SDS011;15238;49.082;9.102;2023-08-06T02:05:51;4.20;;;2.60;;
27889;SDS011;15238;49.082;9.102;2023-08-06T02:07:51;5.32;;;2.38;;
27889;SDS011;15238;49.082;9.102;2023-08-06T02:09:52;3.08;;;2.67;;
27889;SDS011;15238;49.082;9.102;2023-08-06T02:11:52;8.25;;;2.80;;
27889;SDS011;15238;49.082;9.102;2023-08-06T02:13:53;4.03;;;3.10;;
27889;SDS011;15238;49.082;9.102;2023-08-06T02:15:54;4.47;;;2.90;;
27889;SDS011;15238;49.082;9.102;2023-08-06T02:17:54;5.32;;;3.05;;
27889;SDS011;15238;49.082;9.102;2023-08-06T02:19:55;4.18;;;2.97;;
27889;SDS011;15238;49.082;9.102;2023-08-06T02:21:56;6.70;;;3.03;;
27889;SDS011;15238;49.082;9.102;2023-08-06T02:23:56;4.95;;;2.92;;
27889;SDS011;15238;49.082;9.102;2023-08-06T02:26:00;4.13;;;3.45;;
27889;SDS011;15238;49.082;9.102;2023-08-06T02:28:02;3.65;;;2.30;;
27889;SDS011;15238;49.082;9.102;2023-08-06T02:30:02;4.40;;;2.60;;
27889;SDS011;15238;49.082;9.102;2023-08-06T02:32:04;3.72;;;2.53;;
27889;SDS011;15238;49.082;9.102;2023-08-06T02:34:05;2.80;;;2.50;;
27889;SDS011;15238;49.082;9.102;2023-08-06T02:36:06;3.47;;;2.58;;
27889;SDS011;15238;49.082;9.102;2023-08-06T02:38:06;4.45;;;2.90;;
27889;SDS011;15238;49.082;9.102;2023-08-06T02:40:07;2.80;;;2.50;;
27889;SDS011;15238;49.082;9.102;2023-08-06T02:42:08;3.63;;;2.50;;
27889;SDS011;15238;49.082;9.102;2023-08-06T02:44:09;2.63;;;2.28;;
27889;SDS011;15238;49.082;9.102;2023-08-06T02:46:09;4.85;;;2.10;;
27889;SDS011;15238;49.082;9.102;2023-08-06T02:48:10;3.47;;;2.22;;
27889;SDS011;15238;49.082;9.102;2023-08-06T02:50:10;2.78;;;2.20;;
27889;SDS011;15238;49.082;9.102;2023-08-06T02:52:11;3.13;;;2.28;;
27889;SDS011;15238;49.082;9.102;2023-08-06T02:54:11;2.50;;;1.80;;
27889;SDS011;15238;49.082;9.102;2023-08-06T02:56:12;2.40;;;1.88;;
27889;SDS011;15238;49.082;9.102;2023-08-06T02:58:12;2.10;;;1.90;;
27889;SDS011;15238;49.082;9.102;2023-08-06T03:00:13;5.28;;;1.85;;
27889;SDS011;15238;49.082;9.102;2023-08-06T03:02:14;6.57;;;2.20;;
27889;SDS011;15238;49.082;9.102;2023-08-06T03:04:15;5.38;;;2.00;;
27889;SDS011;15238;49.082;9.102;2023-08-06T03:06:17;2.88;;;1.90;;
27889;SDS011;15238;49.082;9.102;2023-08-06T03:08:18;3.95;;;1.65;;
27889;SDS011;15238;49.082;9.102;2023-08-06T03:10:22;3.83;;;1.70;;
27889;SDS011;15238;49.082;9.102;2023-08-06T03:12:22;1.85;;;1.60;;
27889;SDS011;15238;49.082;9.102;2023-08-06T03:14:23;3.60;;;1.63;;
27889;SDS011;15238;49.082;9.102;2023-08-06T03:16:23;5.10;;;1.50;;
27889;SDS011;15238;49.082;9.102;2023-08-06T03:18:24;2.47;;;1.85;;
27889;SDS011;15238;49.082;9.102;2023-08-06T03:20:26;1.92;;;1.70;;
27889;SDS011;15238;49.082;9.102;2023-08-06T03:22:26;1.90;;;1.60;;
27889;SDS011;15238;49.082;9.102;2023-08-06T03:24:26;2.58;;;1.75;;
27889;SDS011;15238;49.082;9.102;2023-08-06T03:26:27;2.85;;;1.70;;
27889;SDS011;15238;49.082;9.102;2023-08-06T03:28:28;2.03;;;1.50;;
27889;SDS011;15238;49.082;9.102;2023-08-06T03:30:28;2.95;;;1.75;;
27889;SDS011;15238;49.082;9.102;2023-08-06T03:32:29;2.67;;;1.88;;
27889;SDS011;15238;49.082;9.102;2023-08-06T03:34:29;2.40;;;1.92;;
27889;SDS011;15238;49.082;9.102;2023-08-06T03:36:30;2.50;;;1.80;;
27889;SDS011;15238;49.082;9.102;2023-08-06T03:38:30;2.78;;;2.05;;
27889;SDS011;15238;49.082;9.102;2023-08-06T03:40:31;3.55;;;2.00;;
27889;SDS011;15238;49.082;9.102;2023-08-06T03:42:31;2.80;;;1.92;;
27889;SDS011;15238;49.082;9.102;2023-08-06T03:44:32;3.83;;;2.20;;
27889;SDS011;15238;49.082;9.102;2023-08-06T03:46:32;3.10;;;1.98;;
27889;SDS011;15238;49.082;9.102;2023-08-06T03:48:33;2.15;;;1.70;;
27889;SDS011;15238;49.082;9.102;2023-08-06T03:50:34;2.53;;;1.70;;
27889;SDS011;15238;49.082;9.102;2023-08-06T03:52:35;2.35;;;1.73;;
27889;SDS011;15238;49.082;9.102;2023-08-06T03:54:35;1.65;;;1.55;;
27889;SDS011;15238;49.082;9.102;2023-08-06T03:56:36;4.40;;;1.83;;
27889;SDS011;15238;49.082;9.102;2023-08-06T03:58:36;2.28;;;1.65;;
27889;SDS011;15238;49.082;9.102;2023-08-06T04:00:37;5.70;;;1.70;;
27889;SDS011;15238;49.082;9.102;2023-08-06T04:02:37;2.38;;;1.83;;
27889;SDS011;15238;49.082;9.102;2023-08-06T04:04:38;1.55;;;1.42;;
27889;SDS011;15238;49.082;9.102;2023-08-06T04:06:38;3.80;;;2.15;;
27889;SDS011;15238;49.082;9.102;2023-08-06T04:08:39;2.72;;;1.85;;
27889;SDS011;15238;49.082;9.102;2023-08-06T04:10:39;2.95;;;1.50;;
27889;SDS011;15238;49.082;9.102;2023-08-06T04:12:40;3.88;;;1.38;;
27889;SDS011;15238;49.082;9.102;2023-08-06T04:14:40;4.60;;;1.42;;
27889;SDS011;15238;49.082;9.102;2023-08-06T04:16:41;4.20;;;1.10;;
27889;SDS011;15238;49.082;9.102;2023-08-06T04:18:41;3.40;;;1.15;;
27889;SDS011;15238;49.082;9.102;2023-08-06T04:20:42;1.75;;;0.80;;
27889;SDS011;15238;49.082;9.102;2023-08-06T04:22:49;4.38;;;1.27;;
27889;SDS011;15238;49.082;9.102;2023-08-06T04:24:49;6.57;;;0.90;;
27889;SDS011;15238;49.082;9.102;2023-08-06T04:26:50;3.80;;;0.85;;
27889;SDS011;15238;49.082;9.102;2023-08-06T04:28:51;0.80;;;0.57;;
27889;SDS011;15238;49.082;9.102;2023-08-06T04:30:51;2.60;;;0.75;;
27889;SDS011;15238;49.082;9.102;2023-08-06T04:32:53;2.40;;;0.82;;
27889;SDS011;15238;49.082;9.102;2023-08-06T04:34:55;0.85;;;0.43;;
27889;SDS011;15238;49.082;9.102;2023-08-06T04:36:56;2.17;;;0.68;;
27889;SDS011;15238;49.082;9.102;2023-08-06T04:38:57;1.45;;;0.60;;
27889;SDS011;15238;49.082;9.102;2023-08-06T04:40:57;1.77;;;0.75;;
27889;SDS011;15238;49.082;9.102;2023-08-06T04:42:58;2.03;;;0.43;;
27889;SDS011;15238;49.082;9.102;2023-08-06T04:44:58;5.13;;;1.00;;
27889;SDS011;15238;49.082;9.102;2023-08-06T04:47:00;3.47;;;0.80;;
27889;SDS011;15238;49.082;9.102;2023-08-06T04:49:01;2.22;;;0.77;;
27889;SDS011;15238;49.082;9.102;2023-08-06T04:51:01;1.17;;;0.40;;
27889;SDS011;15238;49.082;9.102;2023-08-06T04:53:02;4.45;;;0.60;;
27889;SDS011;15238;49.082;9.102;2023-08-06T04:55:02;2.83;;;0.77;;
27889;SDS011;15238;49.082;9.102;2023-08-06T04:57:05;4.00;;;0.60;;
27889;SDS011;15238;49.082;9.102;2023-08-06T04:59:06;2.17;;;0.75;;
27889;SDS011;15238;49.082;9.102;2023-08-06T05:01:06;2.33;;;0.95;;
27889;SDS011;15238;49.082;9.102;2023-08-06T05:03:07;1.33;;;0.32;;
27889;SDS011;15238;49.082;9.102;2023-08-06T05:05:07;2.30;;;0.35;;
27889;SDS011;15238;49.082;9.102;2023-08-06T05:07:08;2.35;;;0.40;;
27889;SDS011;15238;49.082;9.102;2023-08-06T05:09:10;4.35;;;1.02;;
27889;SDS011;15238;49.082;9.102;2023-08-06T05:11:10;1.80;;;0.50;;
27889;SDS011;15238;49.082;9.102;2023-08-06T05:13:11;1.98;;;0.60;;
27889;SDS011;15238;49.082;9.102;2023-08-06T05:15:12;3.65;;;0.82;;
27889;SDS011;15238;49.082;9.102;2023-08-06T05:17:12;2.38;;;0.85;;
27889;SDS011;15238;49.082;9.102;2023-08-06T05:19:13;1.05;;;0.60;;
27889;SDS011;15238;49.082;9.102;2023-08-06T05:21:13;1.95;;;0.50;;
27889;SDS011;15238;49.082;9.102;2023-08-06T05:23:14;2.65;;;0.73;;
27889;SDS011;15238;49.082;9.102;2023-08-06T05:25:14;2.65;;;0.57;;
27889;SDS011;15238;49.082;9.102;2023-08-06T05:27:15;1.40;;;0.50;;
27889;SDS011;15238;49.082;9.102;2023-08-06T05:29:16;2.35;;;0.50;;
27889;SDS011;15238;49.082;9.102;2023-08-06T05:31:16;1.38;;;0.60;;
27889;SDS011;15238;49.082;9.102;2023-08-06T05:33:17;2.53;;;0.50;;
27889;SDS011;15238;49.082;9.102;2023-08-06T05:35:17;1.30;;;0.50;;
27889;SDS011;15238;49.082;9.102;2023-08-06T05:37:18;2.63;;;0.55;;
27889;SDS011;15238;49.082;9.102;2023-08-06T05:39:18;1.73;;;0.30;;
27889;SDS011;15238;49.082;9.102;2023-08-06T05:41:19;0.77;;;0.45;;
27889;SDS011;15238;49.082;9.102;2023-08-06T05:43:19;2.45;;;0.45;;
27889;SDS011;15238;49.082;9.102;2023-08-06T05:45:20;1.40;;;0.50;;
27889;SDS011;15238;49.082;9.102;2023-08-06T05:47:20;3.08;;;0.70;;
27889;SDS011;15238;49.082;9.102;2023-08-06T05:49:21;2.25;;;0.28;;
27889;SDS011;15238;49.082;9.102;2023-08-06T05:51:21;6.70;;;0.80;;
27889;SDS011;15238;49.082;9.102;2023-08-06T05:53:22;0.52;;;0.30;;
27889;SDS011;15238;49.082;9.102;2023-08-06T05:55:22;2.10;;;0.35;;
27889;SDS011;15238;49.082;9.102;2023-08-06T05:57:23;1.95;;;0.40;;
27889;SDS011;15238;49.082;9.102;2023-08-06T05:59:23;1.17;;;0.60;;
27889;SDS011;15238;49.082;9.102;2023-08-06T06:01:24;0.82;;;0.25;;
27889;SDS011;15238;49.082;9.102;2023-08-06T06:03:24;2.00;;;0.50;;
27889;SDS011;15238;49.082;9.102;2023-08-06T06:05:25;0.38;;;0.30;;
27889;SDS011;15238;49.082;9.102;2023-08-06T06:07:26;0.60;;;0.38;;
27889;SDS011;15238;49.082;9.102;2023-08-06T06:09:26;1.23;;;0.30;;
27889;SDS011;15238;49.082;9.102;2023-08-06T06:11:27;0.73;;;0.30;;
27889;SDS011;15238;49.082;9.102;2023-08-06T06:13:27;0.98;;;0.38;;
27889;SDS011;15238;49.082;9.102;2023-08-06T06:15:27;2.55;;;0.75;;
27889;SDS011;15238;49.082;9.102;2023-08-06T06:17:28;2.33;;;0.30;;
27889;SDS011;15238;49.082;9.102;2023-08-06T06:19:29;1.35;;;0.57;;
27889;SDS011;15238;49.082;9.102;2023-08-06T06:21:29;1.17;;;0.30;;
27889;SDS011;15238;49.082;9.102;2023-08-06T06:23:30;1.17;;;0.40;;
27889;SDS011;15238;49.082;9.102;2023-08-06T06:25:30;1.08;;;0.40;;
27889;SDS011;15238;49.082;9.102;2023-08-06T06:27:31;1.48;;;0.32;;
27889;SDS011;15238;49.082;9.102;2023-08-06T06:29:31;1.77;;;0.30;;
27889;SDS011;15238;49.082;9.102;2023-08-06T06:31:32;0.60;;;0.35;;
27889;SDS011;15238;49.082;9.102;2023-08-06T06:33:32;0.57;;;0.15;;
27889;SDS011;15238;49.082;9.102;2023-08-06T06:35:33;2.30;;;0.45;;
27889;SDS011;15238;49.082;9.102;2023-08-06T06:37:33;1.20;;;0.13;;
27889;SDS011;15238;49.082;9.102;2023-08-06T06:39:34;2.95;;;0.32;;
27889;SDS011;15238;49.082;9.102;2023-08-06T06:41:34;1.08;;;0.32;;
27889;SDS011;15238;49.082;9.102;2023-08-06T06:43:35;2.83;;;0.25;;
27889;SDS011;15238;49.082;9.102;2023-08-06T06:45:37;1.27;;;1.00;;
27889;SDS011;15238;49.082;9.102;2023-08-06T06:47:38;1.42;;;0.40;;
27889;SDS011;15238;49.082;9.102;2023-08-06T06:49:38;0.65;;;0.20;;
27889;SDS011;15238;49.082;9.102;2023-08-06T06:51:39;1.00;;;0.57;;
27889;SDS011;15238;49.082;9.102;2023-08-06T06:53:39;1.70;;;0.20;;
27889;SDS011;15238;49.082;9.102;2023-08-06T06:55:40;0.98;;;0.55;;
27889;SDS011;15238;49.082;9.102;2023-08-06T06:57:40;0.90;;;0.32;;
27889;SDS011;15238;49.082;9.102;2023-08-06T06:59:41;1.42;;;0.20;;
27889;SDS011;15238;49.082;9.102;2023-08-06T07:01:41;0.63;;;0.20;;
27889;SDS011;15238;49.082;9.102;2023-08-06T07:03:45;1.05;;;0.30;;
27889;SDS011;15238;49.082;9.102;2023-08-06T07:05:45;2.05;;;0.10;;
27889;SDS011;15238;49.082;9.102;2023-08-06T07:07:46;0.10;;;0.08;;
27889;SDS011;15238;49.082;9.102;2023-08-06T07:09:46;3.13;;;0.10;;
27889;SDS011;15238;49.082;9.102;2023-08-06T07:11:47;0.45;;;0.20;;
27889;SDS011;15238;49.082;9.102;2023-08-06T07:13:49;1.65;;;0.30;;
27889;SDS011;15238;49.082;9.102;2023-08-06T07:15:55;0.35;;;0.15;;
27889;SDS011;15238;49.082;9.102;2023-08-06T07:17:56;0.57;;;0.10;;
27889;SDS011;15238;49.082;9.102;2023-08-06T07:19:56;1.08;;;0.30;;
27889;SDS011;15238;49.082;9.102;2023-08-06T07:21:57;0.65;;;0.10;;
27889;SDS011;15238;49.082;9.102;2023-08-06T07:23:57;0.55;;;0.20;;
27889;SDS011;15238;49.082;9.102;2023-08-06T07:25:59;0.47;;;0.00;;
27889;SDS011;15238;49.082;9.102;2023-08-06T07:27:59;0.10;;;0.00;;
27889;SDS011;15238;49.082;9.102;2023-08-06T07:30:02;0.55;;;0.05;;
27889;SDS011;15238;49.082;9.102;2023-08-06T07:32:03;0.00;;;0.00;;
27889;SDS011;15238;49.082;9.102;2023-08-06T07:34:04;0.00;;;0.00;;
27889;SDS011;15238;49.082;9.102;2023-08-06T07:36:11;0.80;;;0.08;;
27889;SDS011;15238;49.082;9.102;2023-08-06T07:38:12;0.50;;;0.20;;
27889;SDS011;15238;49.082;9.102;2023-08-06T07:40:13;0.50;;;0.20;;
27889;SDS011;15238;49.082;9.102;2023-08-06T07:42:14;0.13;;;0.10;;
27889;SDS011;15238;49.082;9.102;2023-08-06T07:44:14;2.28;;;0.20;;
27889;SDS011;15238;49.082;9.102;2023-08-06T07:46:15;0.00;;;0.00;;
27889;SDS011;15238;49.082;9.102;2023-08-06T07:48:15;0.00;;;0.00;;
27889;SDS011;15238;49.082;9.102;2023-08-06T07:50:16;0.00;;;0.00;;
27889;SDS011;15238;49.082;9.102;2023-08-06T07:52:16;0.38;;;0.00;;
27889;SDS011;15238;49.082;9.102;2023-08-06T07:54:17;0.38;;;0.10;;
27889;SDS011;15238;49.082;9.102;2023-08-06T07:56:17;0.00;;;0.00;;
27889;SDS011;15238;49.082;9.102;2023-08-06T07:58:18;0.05;;;0.05;;
27889;SDS011;15238;49.082;9.102;2023-08-06T08:00:19;1.17;;;0.10;;
27889;SDS011;15238;49.082;9.102;2023-08-06T08:02:19;1.42;;;0.17;;
27889;SDS011;15238;49.082;9.102;2023-08-06T08:04:20;0.77;;;0.20;;
27889;SDS011;15238;49.082;9.102;2023-08-06T08:06:21;0.40;;;0.10;;
27889;SDS011;15238;49.082;9.102;2023-08-06T08:08:21;0.50;;;0.10;;
27889;SDS011;15238;49.082;9.102;2023-08-06T08:10:22;0.90;;;0.25;;
27889;SDS011;15238;49.082;9.102;2023-08-06T08:12:22;0.10;;;0.00;;
27889;SDS011;15238;49.082;9.102;2023-08-06T08:14:23;0.57;;;0.03;;
27889;SDS011;15238;49.082;9.102;2023-08-06T08:16:23;0.05;;;0.03;;
27889;SDS011;15238;49.082;9.102;2023-08-06T08:18:24;0.00;;;0.00;;
27889;SDS011;15238;49.082;9.102;2023-08-06T08:20:25;0.45;;;0.10;;
27889;SDS011;15238;49.082;9.102;2023-08-06T08:22:31;0.08;;;0.00;;
27889;SDS011;15238;49.082;9.102;2023-08-06T08:24:31;0.28;;;0.00;;
27889;SDS011;15238;49.082;9.102;2023-08-06T08:26:32;0.70;;;0.10;;
27889;SDS011;15238;49.082;9.102;2023-08-06T08:28:32;0.10;;;0.00;;
27889;SDS011;15238;49.082;9.102;2023-08-06T08:30:33;0.00;;;0.00;;
27889;SDS011;15238;49.082;9.102;2023-08-06T08:32:33;0.50;;;0.13;;
27889;SDS011;15238;49.082;9.102;2023-08-06T08:34:34;0.20;;;0.00;;
27889;SDS011;15238;49.082;9.102;2023-08-06T08:36:34;1.17;;;0.10;;
27889;SDS011;15238;49.082;9.102;2023-08-06T08:38:35;0.13;;;0.05;;
27889;SDS011;15238;49.082;9.102;2023-08-06T08:40:36;0.88;;;0.00;;
27889;SDS011;15238;49.082;9.102;2023-08-06T08:42:49;0.82;;;0.10;;
27889;SDS011;15238;49.082;9.102;2023-08-06T08:44:50;2.33;;;0.10;;
27889;SDS011;15238;49.082;9.102;2023-08-06T08:46:53;0.32;;;0.32;;
27889;SDS011;15238;49.082;9.102;2023-08-06T08:48:54;1.20;;;0.15;;
27889;SDS011;15238;49.082;9.102;2023-08-06T08:50:55;0.13;;;0.00;;
27889;SDS011;15238;49.082;9.102;2023-08-06T08:52:56;0.05;;;0.00;;
27889;SDS011;15238;49.082;9.102;2023-08-06T08:54:57;0.00;;;0.00;;
27889;SDS011;15238;49.082;9.102;2023-08-06T08:56:59;1.35;;;0.10;;
27889;SDS011;15238;49.082;9.102;2023-08-06T08:59:00;0.00;;;0.00;;
27889;SDS011;15238;49.082;9.102;2023-08-06T09:01:00;0.10;;;0.00;;
27889;SDS011;15238;49.082;9.102;2023-08-06T09:03:02;0.00;;;0.00;;
27889;SDS011;15238;49.082;9.102;2023-08-06T09:05:06;0.05;;;0.00;;
27889;SDS011;15238;49.082;9.102;2023-08-06T09:07:08;0.00;;;0.00;;
27889;SDS011;15238;49.082;9.102;2023-08-06T09:09:12;0.00;;;0.00;;
27889;SDS011;15238;49.082;9.102;2023-08-06T09:11:16;0.00;;;0.00;;
27889;SDS011;15238;49.082;9.102;2023-08-06T09:13:20;0.00;;;0.00;;
27889;SDS011;15238;49.082;9.102;2023-08-06T09:15:24;1.20;;;0.10;;
27889;SDS011;15238;49.082;9.102;2023-08-06T09:17:25;1.35;;;0.00;;
27889;SDS011;15238;49.082;9.102;2023-08-06T09:19:25;0.00;;;0.00;;
27889;SDS011;15238;49.082;9.102;2023-08-06T09:21:28;0.10;;;0.00;;
27889;SDS011;15238;49.082;9.102;2023-08-06T09:23:29;0.10;;;0.10;;
27889;SDS011;15238;49.082;9.102;2023-08-06T09:25:30;0.43;;;0.20;;
27889;SDS011;15238;49.082;9.102;2023-08-06T09:27:31;1.02;;;0.85;;
27889;SDS011;15238;49.082;9.102;2023-08-06T09:29:32;0.80;;;0.57;;
27889;SDS011;15238;49.082;9.102;2023-08-06T09:31:33;0.20;;;0.20;;
27889;SDS011;15238;49.082;9.102;2023-08-06T09:35:47;0.45;;;0.25;;
27889;SDS011;15238;49.082;9.102;2023-08-06T09:37:48;0.65;;;0.10;;
27889;SDS011;15238;49.082;9.102;2023-08-06T09:39:49;0.63;;;0.17;;
27889;SDS011;15238;49.082;9.102;2023-08-06T09:41:52;0.20;;;0.20;;
27889;SDS011;15238;49.082;9.102;2023-08-06T09:43:56;0.10;;;0.10;;
27889;SDS011;15238;49.082;9.102;2023-08-06T09:45:56;0.00;;;0.00;;
27889;SDS011;15238;49.082;9.102;2023-08-06T09:47:57;0.10;;;0.10;;
27889;SDS011;15238;49.082;9.102;2023-08-06T09:49:58;0.52;;;0.00;;
27889;SDS011;15238;49.082;9.102;2023-08-06T09:51:59;0.45;;;0.10;;
27889;SDS011;15238;49.082;9.102;2023-08-06T09:54:00;0.10;;;0.00;;
27889;SDS011;15238;49.082;9.102;2023-08-06T09:56:01;1.55;;;0.10;;
27889;SDS011;15238;49.082;9.102;2023-08-06T09:58:02;0.00;;;0.00;;
27889;SDS011;15238;49.082;9.102;2023-08-06T10:00:02;0.28;;;0.20;;
27889;SDS011;15238;49.082;9.102;2023-08-06T10:02:06;0.45;;;0.00;;
27889;SDS011;15238;49.082;9.102;2023-08-06T10:04:12;0.10;;;0.10;;
27889;SDS011;15238;49.082;9.102;2023-08-06T10:06:16;0.08;;;0.00;;
27889;SDS011;15238;49.082;9.102;2023-08-06T10:08:16;0.10;;;0.00;;
27889;SDS011;15238;49.082;9.102;2023-08-06T10:10:17;0.85;;;0.10;;
27889;SDS011;15238;49.082;9.102;2023-08-06T10:12:19;0.03;;;0.00;;
27889;SDS011;15238;49.082;9.102;2023-08-06T10:14:22;0.10;;;0.00;;
27889;SDS011;15238;49.082;9.102;2023-08-06T10:16:26;1.38;;;0.00;;
27889;SDS011;15238;49.082;9.102;2023-08-06T10:18:28;0.20;;;0.05;;
27889;SDS011;15238;49.082;9.102;2023-08-06T10:20:33;1.55;;;0.10;;
27889;SDS011;15238;49.082;9.102;2023-08-06T10:22:36;0.10;;;0.00;;
27889;SDS011;15238;49.082;9.102;2023-08-06T10:24:45;1.95;;;0.10;;
27889;SDS011;15238;49.082;9.102;2023-08-06T10:26:50;0.03;;;0.00;;
27889;SDS011;15238;49.082;9.102;2023-08-06T10:28:56;0.10;;;0.10;;
27889;SDS011;15238;49.082;9.102;2023-08-06T10:30:57;2.20;;;0.10;;
27889;SDS011;15238;49.082;9.102;2023-08-06T10:32:58;0.40;;;0.05;;
27889;SDS011;15238;49.082;9.102;2023-08-06T10:35:04;0.10;;;0.10;;
27889;SDS011;15238;49.082;9.102;2023-08-06T10:37:05;0.20;;;0.20;;
27889;SDS011;15238;49.082;9.102;2023-08-06T10:39:09;0.25;;;0.00;;
27889;SDS011;15238;49.082;9.102;2023-08-06T10:41:21;0.10;;;0.10;;
27889;SDS011;15238;49.082;9.102;2023-08-06T10:43:27;0.10;;;0.10;;
27889;SDS011;15238;49.082;9.102;2023-08-06T10:45:28;0.43;;;0.03;;
27889;SDS011;15238;49.082;9.102;2023-08-06T10:47:30;0.10;;;0.10;;
27889;SDS011;15238;49.082;9.102;2023-08-06T10:49:39;0.80;;;0.08;;
27889;SDS011;15238;49.082;9.102;2023-08-06T10:51:39;0.17;;;0.10;;
27889;SDS011;15238;49.082;9.102;2023-08-06T10:53:41;0.52;;;0.20;;
27889;SDS011;15238;49.082;9.102;2023-08-06T10:55:43;0.45;;;0.30;;
27889;SDS011;15238;49.082;9.102;2023-08-06T10:57:43;0.10;;;0.03;;
27889;SDS011;15238;49.082;9.102;2023-08-06T10:59:44;0.20;;;0.20;;
27889;SDS011;15238;49.082;9.102;2023-08-06T11:01:44;0.20;;;0.10;;
27889;SDS011;15238;49.082;9.102;2023-08-06T11:03:46;0.35;;;0.30;;
27889;SDS011;15238;49.082;9.102;2023-08-06T11:05:49;0.68;;;0.30;;
27889;SDS011;15238;49.082;9.102;2023-08-06T11:07:50;0.10;;;0.10;;
27889;SDS011;15238;49.082;9.102;2023-08-06T11:09:51;0.22;;;0.10;;
27889;SDS011;15238;49.082;9.102;2023-08-06T11:11:53;0.30;;;0.20;;
27889;SDS011;15238;49.082;9.102;2023-08-06T11:13:53;0.95;;;0.10;;
27889;SDS011;15238;49.082;9.102;2023-08-06T11:15:54;0.57;;;0.20;;
27889;SDS011;15238;49.082;9.102;2023-08-06T11:17:55;0.98;;;0.17;;
27889;SDS011;15238;49.082;9.102;2023-08-06T11:19:56;3.97;;;0.30;;
27889;SDS011;15238;49.082;9.102;2023-08-06T11:21:59;0.28;;;0.25;;
27889;SDS011;15238;49.082;9.102;2023-08-06T11:24:01;0.70;;;0.28;;
27889;SDS011;15238;49.082;9.102;2023-08-06T11:26:02;0.28;;;0.20;;
27889;SDS011;15238;49.082;9.102;2023-08-06T11:28:03;0.38;;;0.30;;
27889;SDS011;15238;49.082;9.102;2023-08-06T11:30:03;0.60;;;0.35;;
27889;SDS011;15238;49.082;9.102;2023-08-06T11:32:05;0.75;;;0.25;;
27889;SDS011;15238;49.082;9.102;2023-08-06T11:34:06;0.40;;;0.30;;
27889;SDS011;15238;49.082;9.102;2023-08-06T11:36:06;0.55;;;0.52;;
27889;SDS011;15238;49.082;9.102;2023-08-06T11:38:07;0.90;;;0.30;;
27889;SDS011;15238;49.082;9.102;2023-08-06T11:40:09;0.50;;;0.30;;
27889;SDS011;15238;49.082;9.102;2023-08-06T11:42:11;2.50;;;0.47;;
27889;SDS011;15238;49.082;9.102;2023-08-06T11:44:12;0.80;;;0.30;;
27889;SDS011;15238;49.082;9.102;2023-08-06T11:46:13;0.45;;;0.40;;
27889;SDS011;15238;49.082;9.102;2023-08-06T11:48:14;0.50;;;0.50;;
27889;SDS011;15238;49.082;9.102;2023-08-06T11:50:26;0.45;;;0.30;;
27889;SDS011;15238;49.082;9.102;2023-08-06T11:52:28;0.40;;;0.40;;
27889;SDS011;15238;49.082;9.102;2023-08-06T11:54:31;1.77;;;0.40;;
27889;SDS011;15238;49.082;9.102;2023-08-06T11:56:37;1.35;;;0.88;;
27889;SDS011;15238;49.082;9.102;2023-08-06T11:58:37;0.82;;;0.43;;
27889;SDS011;15238;49.082;9.102;2023-08-06T12:00:38;2.05;;;0.90;;
27889;SDS011;15238;49.082;9.102;2023-08-06T12:02:39;1.50;;;0.70;;
27889;SDS011;15238;49.082;9.102;2023-08-06T12:04:57;3.65;;;0.73;;
27889;SDS011;15238;49.082;9.102;2023-08-06T12:07:06;1.35;;;1.00;;
27889;SDS011;15238;49.082;9.102;2023-08-06T12:09:09;1.25;;;1.08;;
27889;SDS011;15238;49.082;9.102;2023-08-06T12:11:10;1.92;;;0.82;;
27889;SDS011;15238;49.082;9.102;2023-08-06T12:13:11;1.38;;;1.00;;
27889;SDS011;15238;49.082;9.102;2023-08-06T12:15:13;1.80;;;0.73;;
27889;SDS011;15238;49.082;9.102;2023-08-06T12:17:14;2.72;;;1.20;;
27889;SDS011;15238;49.082;9.102;2023-08-06T12:19:14;2.38;;;0.93;;